sensor_id;sensor_type;location;lat;lon;timestamp;temperature;humidity
46139;DHT22;32398;49.112;8.598;2023-02-01T00:01:46;4.60;99.40
46139;DHT22;32398;49.112;8.598;2023-02-01T00:04:13;4.60;99.50
46139;DHT22;32398;49.112;8.598;2023-02-01T00:06:40;4.60;99.50
46139;DHT22;32398;49.112;8.598;2023-02-01T00:09:06;4.60;99.50
46139;DHT22;32398;49.112;8.598;2023-02-01T00:11:33;4.60;99.50
46139;DHT22;32398;49.112;8.598;2023-02-01T00:14:00;4.60;99.50
46139;DHT22;32398;49.112;8.598;2023-02-01T00:16:27;4.70;99.50
46139;DHT22;32398;49.112;8.598;2023-02-01T00:18:58;4.60;99.50
46139;DHT22;32398;49.112;8.598;2023-02-01T00:21:24;4.60;99.50
46139;DHT22;32398;49.112;8.598;2023-02-01T00:23:51;4.60;99.60
46139;DHT22;32398;49.112;8.598;2023-02-01T00:26:18;4.60;99.60
46139;DHT22;32398;49.112;8.598;2023-02-01T00:28:45;4.60;99.60
46139;DHT22;32398;49.112;8.598;2023-02-01T00:31:13;4.60;99.60
46139;DHT22;32398;49.112;8.598;2023-02-01T00:33:40;4.60;99.50
46139;DHT22;32398;49.112;8.598;2023-02-01T00:36:08;4.60;99.50
46139;DHT22;32398;49.112;8.598;2023-02-01T00:38:36;4.60;99.50
46139;DHT22;32398;49.112;8.598;2023-02-01T00:41:03;4.60;99.50
46139;DHT22;32398;49.112;8.598;2023-02-01T00:43:30;4.60;99.80
46139;DHT22;32398;49.112;8.598;2023-02-01T00:45:56;4.60;99.50
46139;DHT22;32398;49.112;8.598;2023-02-01T00:48:23;4.70;99.50
46139;DHT22;32398;49.112;8.598;2023-02-01T00:50:49;4.70;99.50
46139;DHT22;32398;49.112;8.598;2023-02-01T00:53:17;4.70;99.50
46139;DHT22;32398;49.112;8.598;2023-02-01T00:55:44;4.60;99.50
46139;DHT22;32398;49.112;8.598;2023-02-01T00:58:11;4.70;99.50
46139;DHT22;32398;49.112;8.598;2023-02-01T01:00:37;4.60;99.50
46139;DHT22;32398;49.112;8.598;2023-02-01T01:03:04;4.60;99.40
46139;DHT22;32398;49.112;8.598;2023-02-01T01:05:43;4.70;99.40
46139;DHT22;32398;49.112;8.598;2023-02-01T01:08:09;4.70;99.40
46139;DHT22;32398;49.112;8.598;2023-02-01T01:10:37;4.70;99.40
46139;DHT22;32398;49.112;8.598;2023-02-01T01:13:04;4.60;99.40
46139;DHT22;32398;49.112;8.598;2023-02-01T01:15:30;4.70;99.40
46139;DHT22;32398;49.112;8.598;2023-02-01T01:17:57;4.70;99.40
46139;DHT22;32398;49.112;8.598;2023-02-01T01:20:23;4.70;99.40
46139;DHT22;32398;49.112;8.598;2023-02-01T01:22:50;4.70;99.40
46139;DHT22;32398;49.112;8.598;2023-02-01T01:25:16;4.70;99.40
46139;DHT22;32398;49.112;8.598;2023-02-01T01:27:44;4.70;99.40
46139;DHT22;32398;49.112;8.598;2023-02-01T01:30:11;4.70;99.30
46139;DHT22;32398;49.112;8.598;2023-02-01T01:32:38;4.70;99.30
46139;DHT22;32398;49.112;8.598;2023-02-01T01:35:05;4.70;99.30
46139;DHT22;32398;49.112;8.598;2023-02-01T01:37:31;4.70;99.30
46139;DHT22;32398;49.112;8.598;2023-02-01T01:39:58;4.70;99.30
46139;DHT22;32398;49.112;8.598;2023-02-01T01:42:24;4.70;99.30
46139;DHT22;32398;49.112;8.598;2023-02-01T01:44:59;4.70;99.30
46139;DHT22;32398;49.112;8.598;2023-02-01T01:47:26;4.70;99.20
46139;DHT22;32398;49.112;8.598;2023-02-01T01:49:55;4.70;99.20
46139;DHT22;32398;49.112;8.598;2023-02-01T01:52:22;4.70;99.20
46139;DHT22;32398;49.112;8.598;2023-02-01T01:54:50;4.70;99.20
46139;DHT22;32398;49.112;8.598;2023-02-01T01:57:18;4.70;99.20
46139;DHT22;32398;49.112;8.598;2023-02-01T01:59:46;4.70;99.20
46139;DHT22;32398;49.112;8.598;2023-02-01T02:02:16;4.70;99.20
46139;DHT22;32398;49.112;8.598;2023-02-01T02:04:43;4.70;99.20
46139;DHT22;32398;49.112;8.598;2023-02-01T02:07:10;4.70;99.20
46139;DHT22;32398;49.112;8.598;2023-02-01T02:09:37;4.70;99.20
46139;DHT22;32398;49.112;8.598;2023-02-01T02:12:04;4.70;99.20
46139;DHT22;32398;49.112;8.598;2023-02-01T02:14:30;4.70;99.30
46139;DHT22;32398;49.112;8.598;2023-02-01T02:17:00;4.70;99.30
46139;DHT22;32398;49.112;8.598;2023-02-01T02:19:41;4.70;99.30
46139;DHT22;32398;49.112;8.598;2023-02-01T02:22:19;4.70;99.20
46139;DHT22;32398;49.112;8.598;2023-02-01T02:24:56;4.70;99.20
46139;DHT22;32398;49.112;8.598;2023-02-01T02:27:30;4.70;99.20
46139;DHT22;32398;49.112;8.598;2023-02-01T02:30:07;4.70;99.20
46139;DHT22;32398;49.112;8.598;2023-02-01T02:35:26;4.70;99.20
46139;DHT22;32398;49.112;8.598;2023-02-01T02:37:54;4.70;99.20
46139;DHT22;32398;49.112;8.598;2023-02-01T02:40:27;4.70;99.20
46139;DHT22;32398;49.112;8.598;2023-02-01T02:42:58;4.70;99.10
46139;DHT22;32398;49.112;8.598;2023-02-01T02:45:44;4.70;99.10
46139;DHT22;32398;49.112;8.598;2023-02-01T02:48:33;4.80;99.20
46139;DHT22;32398;49.112;8.598;2023-02-01T02:51:05;4.70;99.10
46139;DHT22;32398;49.112;8.598;2023-02-01T02:53:52;4.80;99.20
46139;DHT22;32398;49.112;8.598;2023-02-01T02:56:40;4.70;99.20
46139;DHT22;32398;49.112;8.598;2023-02-01T02:59:24;4.70;99.20
46139;DHT22;32398;49.112;8.598;2023-02-01T03:02:10;4.80;99.20
46139;DHT22;32398;49.112;8.598;2023-02-01T03:04:54;4.80;99.20
46139;DHT22;32398;49.112;8.598;2023-02-01T03:10:09;4.80;99.20
46139;DHT22;32398;49.112;8.598;2023-02-01T03:12:42;4.80;99.20
46139;DHT22;32398;49.112;8.598;2023-02-01T03:15:20;4.80;99.20
46139;DHT22;32398;49.112;8.598;2023-02-01T03:17:48;4.70;99.20
46139;DHT22;32398;49.112;8.598;2023-02-01T03:20:16;4.70;99.20
46139;DHT22;32398;49.112;8.598;2023-02-01T03:22:45;4.70;99.20
46139;DHT22;32398;49.112;8.598;2023-02-01T03:25:14;4.80;99.20
46139;DHT22;32398;49.112;8.598;2023-02-01T03:27:46;4.80;99.20
46139;DHT22;32398;49.112;8.598;2023-02-01T03:30:16;4.80;99.30
46139;DHT22;32398;49.112;8.598;2023-02-01T03:32:44;4.80;99.30
46139;DHT22;32398;49.112;8.598;2023-02-01T03:35:26;4.80;99.30
46139;DHT22;32398;49.112;8.598;2023-02-01T03:37:54;4.80;99.30
46139;DHT22;32398;49.112;8.598;2023-02-01T03:40:24;4.80;99.30
46139;DHT22;32398;49.112;8.598;2023-02-01T03:42:53;4.80;99.40
46139;DHT22;32398;49.112;8.598;2023-02-01T03:45:22;4.80;99.40
46139;DHT22;32398;49.112;8.598;2023-02-01T03:47:51;4.80;99.30
46139;DHT22;32398;49.112;8.598;2023-02-01T03:50:20;4.80;99.40
46139;DHT22;32398;49.112;8.598;2023-02-01T03:52:48;4.80;99.40
46139;DHT22;32398;49.112;8.598;2023-02-01T03:55:18;4.80;99.40
46139;DHT22;32398;49.112;8.598;2023-02-01T03:57:48;4.80;99.30
46139;DHT22;32398;49.112;8.598;2023-02-01T04:00:18;4.80;99.30
46139;DHT22;32398;49.112;8.598;2023-02-01T04:02:47;4.80;99.30
46139;DHT22;32398;49.112;8.598;2023-02-01T04:05:13;4.80;99.30
46139;DHT22;32398;49.112;8.598;2023-02-01T04:07:40;4.80;99.30
46139;DHT22;32398;49.112;8.598;2023-02-01T04:10:07;4.80;99.30
46139;DHT22;32398;49.112;8.598;2023-02-01T04:12:34;4.90;99.30
46139;DHT22;32398;49.112;8.598;2023-02-01T04:15:02;4.80;99.30
46139;DHT22;32398;49.112;8.598;2023-02-01T04:17:29;4.80;99.30
46139;DHT22;32398;49.112;8.598;2023-02-01T04:19:55;4.80;99.30
46139;DHT22;32398;49.112;8.598;2023-02-01T04:22:22;4.80;99.40
46139;DHT22;32398;49.112;8.598;2023-02-01T04:24:49;4.80;99.60
46139;DHT22;32398;49.112;8.598;2023-02-01T04:27:15;4.90;99.70
46139;DHT22;32398;49.112;8.598;2023-02-01T04:29:42;4.80;99.70
46139;DHT22;32398;49.112;8.598;2023-02-01T04:32:11;4.80;99.70
46139;DHT22;32398;49.112;8.598;2023-02-01T04:34:38;4.80;99.80
46139;DHT22;32398;49.112;8.598;2023-02-01T04:37:04;4.80;99.80
46139;DHT22;32398;49.112;8.598;2023-02-01T04:39:31;4.80;99.80
46139;DHT22;32398;49.112;8.598;2023-02-01T04:41:57;4.80;99.80
46139;DHT22;32398;49.112;8.598;2023-02-01T04:44:24;4.80;99.80
46139;DHT22;32398;49.112;8.598;2023-02-01T04:46:50;4.80;99.80
46139;DHT22;32398;49.112;8.598;2023-02-01T04:49:18;4.80;99.80
46139;DHT22;32398;49.112;8.598;2023-02-01T04:51:46;4.80;99.80
46139;DHT22;32398;49.112;8.598;2023-02-01T04:54:13;4.80;99.80
46139;DHT22;32398;49.112;8.598;2023-02-01T04:56:40;4.80;99.80
46139;DHT22;32398;49.112;8.598;2023-02-01T04:59:06;4.80;99.90
46139;DHT22;32398;49.112;8.598;2023-02-01T05:01:33;4.80;99.90
46139;DHT22;32398;49.112;8.598;2023-02-01T05:03:59;4.80;99.90
46139;DHT22;32398;49.112;8.598;2023-02-01T05:06:27;4.80;99.90
46139;DHT22;32398;49.112;8.598;2023-02-01T05:08:54;4.80;99.90
46139;DHT22;32398;49.112;8.598;2023-02-01T05:11:20;4.80;99.90
46139;DHT22;32398;49.112;8.598;2023-02-01T05:14:04;4.80;99.90
46139;DHT22;32398;49.112;8.598;2023-02-01T05:16:31;4.70;99.90
46139;DHT22;32398;49.112;8.598;2023-02-01T05:18:58;4.80;99.90
46139;DHT22;32398;49.112;8.598;2023-02-01T05:21:24;4.70;99.90
46139;DHT22;32398;49.112;8.598;2023-02-01T05:23:52;4.70;99.90
46139;DHT22;32398;49.112;8.598;2023-02-01T05:26:38;4.70;99.90
46139;DHT22;32398;49.112;8.598;2023-02-01T05:29:05;4.80;99.90
46139;DHT22;32398;49.112;8.598;2023-02-01T05:31:33;4.70;99.90
46139;DHT22;32398;49.112;8.598;2023-02-01T05:34:00;4.70;99.90
46139;DHT22;32398;49.112;8.598;2023-02-01T05:36:26;4.80;99.90
46139;DHT22;32398;49.112;8.598;2023-02-01T05:38:54;4.70;99.90
46139;DHT22;32398;49.112;8.598;2023-02-01T05:41:21;4.70;99.90
46139;DHT22;32398;49.112;8.598;2023-02-01T05:43:47;4.70;99.90
46139;DHT22;32398;49.112;8.598;2023-02-01T05:46:14;4.70;99.90
46139;DHT22;32398;49.112;8.598;2023-02-01T05:48:41;4.70;99.90
46139;DHT22;32398;49.112;8.598;2023-02-01T05:51:08;4.70;99.90
46139;DHT22;32398;49.112;8.598;2023-02-01T05:53:35;4.70;99.90
46139;DHT22;32398;49.112;8.598;2023-02-01T05:56:03;4.70;99.90
46139;DHT22;32398;49.112;8.598;2023-02-01T05:58:29;4.70;99.90
46139;DHT22;32398;49.112;8.598;2023-02-01T06:00:58;4.70;99.90
46139;DHT22;32398;49.112;8.598;2023-02-01T06:03:25;4.70;99.90
46139;DHT22;32398;49.112;8.598;2023-02-01T06:05:51;4.70;99.90
46139;DHT22;32398;49.112;8.598;2023-02-01T06:08:18;4.70;99.90
46139;DHT22;32398;49.112;8.598;2023-02-01T06:10:44;4.70;99.90
46139;DHT22;32398;49.112;8.598;2023-02-01T06:13:12;4.70;99.90
46139;DHT22;32398;49.112;8.598;2023-02-01T06:15:39;4.70;99.90
46139;DHT22;32398;49.112;8.598;2023-02-01T06:18:07;4.70;99.90
46139;DHT22;32398;49.112;8.598;2023-02-01T06:20:34;4.70;99.90
46139;DHT22;32398;49.112;8.598;2023-02-01T06:23:00;4.70;99.90
46139;DHT22;32398;49.112;8.598;2023-02-01T06:25:27;4.70;99.90
46139;DHT22;32398;49.112;8.598;2023-02-01T06:27:53;4.70;99.90
46139;DHT22;32398;49.112;8.598;2023-02-01T06:30:21;4.70;99.90
46139;DHT22;32398;49.112;8.598;2023-02-01T06:32:50;4.70;99.90
46139;DHT22;32398;49.112;8.598;2023-02-01T06:35:18;4.70;99.90
46139;DHT22;32398;49.112;8.598;2023-02-01T06:37:45;4.70;99.90
46139;DHT22;32398;49.112;8.598;2023-02-01T06:40:12;4.70;99.90
46139;DHT22;32398;49.112;8.598;2023-02-01T06:42:39;4.70;99.90
46139;DHT22;32398;49.112;8.598;2023-02-01T06:45:05;4.70;99.90
46139;DHT22;32398;49.112;8.598;2023-02-01T06:47:34;4.70;99.90
46139;DHT22;32398;49.112;8.598;2023-02-01T06:50:00;4.70;99.90
46139;DHT22;32398;49.112;8.598;2023-02-01T06:52:27;4.70;99.90
46139;DHT22;32398;49.112;8.598;2023-02-01T06:54:53;4.70;99.90
46139;DHT22;32398;49.112;8.598;2023-02-01T06:57:21;4.70;99.90
46139;DHT22;32398;49.112;8.598;2023-02-01T06:59:47;4.70;99.90
46139;DHT22;32398;49.112;8.598;2023-02-01T07:02:14;4.70;99.90
46139;DHT22;32398;49.112;8.598;2023-02-01T07:04:41;4.70;99.90
46139;DHT22;32398;49.112;8.598;2023-02-01T07:07:08;4.70;99.90
46139;DHT22;32398;49.112;8.598;2023-02-01T07:09:35;4.70;99.90
46139;DHT22;32398;49.112;8.598;2023-02-01T07:12:01;4.70;99.90
46139;DHT22;32398;49.112;8.598;2023-02-01T07:14:28;4.70;99.90
46139;DHT22;32398;49.112;8.598;2023-02-01T07:16:54;4.70;99.90
46139;DHT22;32398;49.112;8.598;2023-02-01T07:19:21;4.70;99.90
46139;DHT22;32398;49.112;8.598;2023-02-01T07:21:48;4.60;99.90
46139;DHT22;32398;49.112;8.598;2023-02-01T07:24:15;4.60;99.90
46139;DHT22;32398;49.112;8.598;2023-02-01T07:26:42;4.60;99.90
46139;DHT22;32398;49.112;8.598;2023-02-01T07:29:08;4.60;99.90
46139;DHT22;32398;49.112;8.598;2023-02-01T07:31:35;4.60;99.90
46139;DHT22;32398;49.112;8.598;2023-02-01T07:34:01;4.70;99.90
46139;DHT22;32398;49.112;8.598;2023-02-01T07:36:28;4.70;99.90
46139;DHT22;32398;49.112;8.598;2023-02-01T07:38:56;4.70;99.90
46139;DHT22;32398;49.112;8.598;2023-02-01T07:41:24;4.70;99.90
46139;DHT22;32398;49.112;8.598;2023-02-01T07:43:52;4.70;99.90
46139;DHT22;32398;49.112;8.598;2023-02-01T07:46:18;4.70;99.90
46139;DHT22;32398;49.112;8.598;2023-02-01T07:48:45;4.70;99.90
46139;DHT22;32398;49.112;8.598;2023-02-01T07:51:12;4.70;99.90
46139;DHT22;32398;49.112;8.598;2023-02-01T07:53:39;4.70;99.90
46139;DHT22;32398;49.112;8.598;2023-02-01T07:56:11;4.70;99.90
46139;DHT22;32398;49.112;8.598;2023-02-01T07:58:38;4.60;99.90
46139;DHT22;32398;49.112;8.598;2023-02-01T08:01:05;4.70;99.90
46139;DHT22;32398;49.112;8.598;2023-02-01T08:03:46;4.70;99.90
46139;DHT22;32398;49.112;8.598;2023-02-01T08:06:13;4.70;99.90
46139;DHT22;32398;49.112;8.598;2023-02-01T08:08:39;4.70;99.90
46139;DHT22;32398;49.112;8.598;2023-02-01T08:11:06;4.70;99.90
46139;DHT22;32398;49.112;8.598;2023-02-01T08:13:34;4.70;99.90
46139;DHT22;32398;49.112;8.598;2023-02-01T08:16:01;4.70;99.90
46139;DHT22;32398;49.112;8.598;2023-02-01T08:18:28;4.70;99.90
46139;DHT22;32398;49.112;8.598;2023-02-01T08:20:55;4.70;99.90
46139;DHT22;32398;49.112;8.598;2023-02-01T08:23:22;4.70;99.90
46139;DHT22;32398;49.112;8.598;2023-02-01T08:25:48;4.70;99.90
46139;DHT22;32398;49.112;8.598;2023-02-01T08:28:15;4.70;99.90
46139;DHT22;32398;49.112;8.598;2023-02-01T08:30:43;4.70;99.90
46139;DHT22;32398;49.112;8.598;2023-02-01T08:33:09;4.70;99.90
46139;DHT22;32398;49.112;8.598;2023-02-01T08:35:37;4.70;99.90
46139;DHT22;32398;49.112;8.598;2023-02-01T08:38:04;4.70;99.90
46139;DHT22;32398;49.112;8.598;2023-02-01T08:40:30;4.70;99.90
46139;DHT22;32398;49.112;8.598;2023-02-01T08:42:57;4.70;99.90
46139;DHT22;32398;49.112;8.598;2023-02-01T08:45:26;4.70;99.90
46139;DHT22;32398;49.112;8.598;2023-02-01T08:47:55;4.70;99.90
46139;DHT22;32398;49.112;8.598;2023-02-01T08:50:23;4.70;99.90
46139;DHT22;32398;49.112;8.598;2023-02-01T08:52:49;4.70;99.90
46139;DHT22;32398;49.112;8.598;2023-02-01T08:55:16;4.80;99.90
46139;DHT22;32398;49.112;8.598;2023-02-01T08:57:43;4.70;99.90
46139;DHT22;32398;49.112;8.598;2023-02-01T09:00:11;4.70;99.90
46139;DHT22;32398;49.112;8.598;2023-02-01T09:02:38;4.70;99.90
46139;DHT22;32398;49.112;8.598;2023-02-01T09:05:06;4.80;99.90
46139;DHT22;32398;49.112;8.598;2023-02-01T09:07:33;4.70;99.90
46139;DHT22;32398;49.112;8.598;2023-02-01T09:09:59;4.70;99.90
46139;DHT22;32398;49.112;8.598;2023-02-01T09:12:26;4.80;99.90
46139;DHT22;32398;49.112;8.598;2023-02-01T09:14:53;4.80;99.90
46139;DHT22;32398;49.112;8.598;2023-02-01T09:17:20;4.80;99.90
46139;DHT22;32398;49.112;8.598;2023-02-01T09:19:46;4.70;99.90
46139;DHT22;32398;49.112;8.598;2023-02-01T09:22:15;4.80;99.90
46139;DHT22;32398;49.112;8.598;2023-02-01T09:24:42;4.80;99.90
46139;DHT22;32398;49.112;8.598;2023-02-01T09:27:08;4.80;99.90
46139;DHT22;32398;49.112;8.598;2023-02-01T09:29:35;4.80;99.90
46139;DHT22;32398;49.112;8.598;2023-02-01T09:32:01;4.80;99.90
46139;DHT22;32398;49.112;8.598;2023-02-01T09:34:28;4.80;99.90
46139;DHT22;32398;49.112;8.598;2023-02-01T09:36:54;4.90;99.90
46139;DHT22;32398;49.112;8.598;2023-02-01T09:39:22;4.90;99.90
46139;DHT22;32398;49.112;8.598;2023-02-01T09:41:51;4.90;99.90
46139;DHT22;32398;49.112;8.598;2023-02-01T09:44:27;4.90;99.90
46139;DHT22;32398;49.112;8.598;2023-02-01T09:46:57;4.90;99.90
46139;DHT22;32398;49.112;8.598;2023-02-01T09:49:26;4.90;99.90
46139;DHT22;32398;49.112;8.598;2023-02-01T09:51:53;4.90;99.90
46139;DHT22;32398;49.112;8.598;2023-02-01T09:54:23;4.90;99.90
46139;DHT22;32398;49.112;8.598;2023-02-01T09:56:51;4.90;99.90
46139;DHT22;32398;49.112;8.598;2023-02-01T09:59:23;4.90;99.90
46139;DHT22;32398;49.112;8.598;2023-02-01T10:01:52;4.90;99.90
46139;DHT22;32398;49.112;8.598;2023-02-01T10:04:19;5.00;99.90
46139;DHT22;32398;49.112;8.598;2023-02-01T10:06:49;5.00;99.90
46139;DHT22;32398;49.112;8.598;2023-02-01T10:12:04;5.00;99.90
46139;DHT22;32398;49.112;8.598;2023-02-01T10:14:46;5.00;99.90
46139;DHT22;32398;49.112;8.598;2023-02-01T10:17:20;5.00;99.90
46139;DHT22;32398;49.112;8.598;2023-02-01T10:19:52;5.00;99.90
46139;DHT22;32398;49.112;8.598;2023-02-01T10:22:24;5.10;99.90
46139;DHT22;32398;49.112;8.598;2023-02-01T10:24:54;5.00;99.90
46139;DHT22;32398;49.112;8.598;2023-02-01T10:27:25;5.10;99.90
46139;DHT22;32398;49.112;8.598;2023-02-01T10:29:54;5.10;99.90
46139;DHT22;32398;49.112;8.598;2023-02-01T10:32:22;5.10;99.90
46139;DHT22;32398;49.112;8.598;2023-02-01T10:34:50;5.20;99.90
46139;DHT22;32398;49.112;8.598;2023-02-01T10:37:22;5.20;99.90
46139;DHT22;32398;49.112;8.598;2023-02-01T10:39:49;5.20;99.90
46139;DHT22;32398;49.112;8.598;2023-02-01T10:42:19;5.20;99.90
46139;DHT22;32398;49.112;8.598;2023-02-01T10:44:48;5.20;99.90
46139;DHT22;32398;49.112;8.598;2023-02-01T10:47:15;5.20;99.90
46139;DHT22;32398;49.112;8.598;2023-02-01T10:49:43;5.20;99.90
46139;DHT22;32398;49.112;8.598;2023-02-01T10:52:12;5.20;99.90
46139;DHT22;32398;49.112;8.598;2023-02-01T10:54:40;5.20;99.90
46139;DHT22;32398;49.112;8.598;2023-02-01T10:57:07;5.20;99.90
46139;DHT22;32398;49.112;8.598;2023-02-01T10:59:34;5.20;99.90
46139;DHT22;32398;49.112;8.598;2023-02-01T11:02:05;5.20;99.90
46139;DHT22;32398;49.112;8.598;2023-02-01T11:04:40;5.30;99.90
46139;DHT22;32398;49.112;8.598;2023-02-01T11:07:12;5.20;99.90
46139;DHT22;32398;49.112;8.598;2023-02-01T11:09:39;5.20;99.90
46139;DHT22;32398;49.112;8.598;2023-02-01T11:12:20;5.20;99.90
46139;DHT22;32398;49.112;8.598;2023-02-01T11:14:48;5.20;99.90
46139;DHT22;32398;49.112;8.598;2023-02-01T11:17:25;5.20;99.90
46139;DHT22;32398;49.112;8.598;2023-02-01T11:19:57;5.20;99.90
46139;DHT22;32398;49.112;8.598;2023-02-01T11:22:24;5.20;99.90
46139;DHT22;32398;49.112;8.598;2023-02-01T11:24:52;5.20;99.90
46139;DHT22;32398;49.112;8.598;2023-02-01T11:27:20;5.20;99.90
46139;DHT22;32398;49.112;8.598;2023-02-01T11:29:48;5.20;99.90
46139;DHT22;32398;49.112;8.598;2023-02-01T11:32:16;5.20;99.90
46139;DHT22;32398;49.112;8.598;2023-02-01T11:34:45;5.20;99.90
46139;DHT22;32398;49.112;8.598;2023-02-01T11:37:20;5.30;99.90
46139;DHT22;32398;49.112;8.598;2023-02-01T11:39:53;5.20;99.90
46139;DHT22;32398;49.112;8.598;2023-02-01T11:42:20;5.20;99.90
46139;DHT22;32398;49.112;8.598;2023-02-01T11:44:46;5.30;99.90
46139;DHT22;32398;49.112;8.598;2023-02-01T11:47:18;5.30;99.90
46139;DHT22;32398;49.112;8.598;2023-02-01T11:49:46;5.30;99.90
46139;DHT22;32398;49.112;8.598;2023-02-01T11:52:14;5.30;99.90
46139;DHT22;32398;49.112;8.598;2023-02-01T11:54:48;5.30;99.90
46139;DHT22;32398;49.112;8.598;2023-02-01T11:57:24;5.30;99.90
46139;DHT22;32398;49.112;8.598;2023-02-01T11:59:57;5.30;99.90
46139;DHT22;32398;49.112;8.598;2023-02-01T12:02:40;5.30;99.90
46139;DHT22;32398;49.112;8.598;2023-02-01T12:05:23;5.30;99.90
46139;DHT22;32398;49.112;8.598;2023-02-01T12:08:11;5.30;99.90
46139;DHT22;32398;49.112;8.598;2023-02-01T12:10:44;5.30;99.80
46139;DHT22;32398;49.112;8.598;2023-02-01T12:13:16;5.30;99.80
46139;DHT22;32398;49.112;8.598;2023-02-01T12:15:49;5.30;99.80
46139;DHT22;32398;49.112;8.598;2023-02-01T12:21:13;5.30;99.70
46139;DHT22;32398;49.112;8.598;2023-02-01T12:23:52;5.30;99.70
46139;DHT22;32398;49.112;8.598;2023-02-01T12:26:27;5.40;99.70
46139;DHT22;32398;49.112;8.598;2023-02-01T12:29:04;5.40;99.60
46139;DHT22;32398;49.112;8.598;2023-02-01T12:31:37;5.40;99.50
46139;DHT22;32398;49.112;8.598;2023-02-01T12:34:13;5.40;99.50
46139;DHT22;32398;49.112;8.598;2023-02-01T12:36:46;5.40;99.40
46139;DHT22;32398;49.112;8.598;2023-02-01T12:39:17;5.40;99.40
46139;DHT22;32398;49.112;8.598;2023-02-01T12:41:49;5.40;99.30
46139;DHT22;32398;49.112;8.598;2023-02-01T12:44:20;5.40;99.20
46139;DHT22;32398;49.112;8.598;2023-02-01T12:46:52;5.40;99.20
46139;DHT22;32398;49.112;8.598;2023-02-01T12:49:21;5.40;99.10
46139;DHT22;32398;49.112;8.598;2023-02-01T12:51:54;5.40;99.50
46139;DHT22;32398;49.112;8.598;2023-02-01T12:54:23;5.40;99.10
46139;DHT22;32398;49.112;8.598;2023-02-01T12:56:56;5.40;99.00
46139;DHT22;32398;49.112;8.598;2023-02-01T12:59:26;5.40;99.00
46139;DHT22;32398;49.112;8.598;2023-02-01T13:01:55;5.50;99.00
46139;DHT22;32398;49.112;8.598;2023-02-01T13:04:26;5.50;99.00
46139;DHT22;32398;49.112;8.598;2023-02-01T13:06:57;5.40;99.00
46139;DHT22;32398;49.112;8.598;2023-02-01T13:09:26;5.50;99.00
46139;DHT22;32398;49.112;8.598;2023-02-01T13:11:57;5.50;99.00
46139;DHT22;32398;49.112;8.598;2023-02-01T13:14:27;5.50;99.00
46139;DHT22;32398;49.112;8.598;2023-02-01T13:16:57;5.50;99.00
46139;DHT22;32398;49.112;8.598;2023-02-01T13:19:26;5.50;98.90
46139;DHT22;32398;49.112;8.598;2023-02-01T13:21:57;5.50;98.90
46139;DHT22;32398;49.112;8.598;2023-02-01T13:24:30;5.50;98.90
46139;DHT22;32398;49.112;8.598;2023-02-01T13:26:57;5.50;98.90
46139;DHT22;32398;49.112;8.598;2023-02-01T13:29:24;5.50;98.90
46139;DHT22;32398;49.112;8.598;2023-02-01T13:32:01;5.50;98.90
46139;DHT22;32398;49.112;8.598;2023-02-01T13:34:40;5.50;98.90
46139;DHT22;32398;49.112;8.598;2023-02-01T13:37:16;5.50;98.90
46139;DHT22;32398;49.112;8.598;2023-02-01T13:39:53;5.50;98.90
46139;DHT22;32398;49.112;8.598;2023-02-01T13:42:25;5.50;98.90
46139;DHT22;32398;49.112;8.598;2023-02-01T13:45:00;5.60;98.90
46139;DHT22;32398;49.112;8.598;2023-02-01T13:47:30;5.50;99.20
46139;DHT22;32398;49.112;8.598;2023-02-01T13:49:58;5.60;98.90
46139;DHT22;32398;49.112;8.598;2023-02-01T13:52:32;5.60;98.80
46139;DHT22;32398;49.112;8.598;2023-02-01T13:55:01;5.60;98.80
46139;DHT22;32398;49.112;8.598;2023-02-01T13:57:32;5.60;98.80
46139;DHT22;32398;49.112;8.598;2023-02-01T14:00:06;5.60;98.80
46139;DHT22;32398;49.112;8.598;2023-02-01T14:08:22;5.60;98.60
46139;DHT22;32398;49.112;8.598;2023-02-01T14:10:49;5.60;98.50
46139;DHT22;32398;49.112;8.598;2023-02-01T14:13:22;5.60;98.50
46139;DHT22;32398;49.112;8.598;2023-02-01T14:21:18;5.60;98.30
46139;DHT22;32398;49.112;8.598;2023-02-01T14:23:47;5.60;98.30
46139;DHT22;32398;49.112;8.598;2023-02-01T14:26:21;5.60;98.30
46139;DHT22;32398;49.112;8.598;2023-02-01T14:28:51;5.60;98.20
46139;DHT22;32398;49.112;8.598;2023-02-01T14:31:25;5.60;98.10
46139;DHT22;32398;49.112;8.598;2023-02-01T14:33:56;5.70;98.10
46139;DHT22;32398;49.112;8.598;2023-02-01T14:36:24;5.70;98.00
46139;DHT22;32398;49.112;8.598;2023-02-01T14:38:52;5.70;98.30
46139;DHT22;32398;49.112;8.598;2023-02-01T14:41:26;5.70;98.00
46139;DHT22;32398;49.112;8.598;2023-02-01T14:44:14;5.70;97.90
46139;DHT22;32398;49.112;8.598;2023-02-01T14:49:28;5.70;97.80
46139;DHT22;32398;49.112;8.598;2023-02-01T14:51:56;5.70;97.70
46139;DHT22;32398;49.112;8.598;2023-02-01T14:54:24;5.70;97.70
46139;DHT22;32398;49.112;8.598;2023-02-01T14:56:51;5.70;97.60
46139;DHT22;32398;49.112;8.598;2023-02-01T14:59:18;5.70;97.60
46139;DHT22;32398;49.112;8.598;2023-02-01T15:01:48;5.70;98.00
46139;DHT22;32398;49.112;8.598;2023-02-01T15:04:17;5.70;97.50
46139;DHT22;32398;49.112;8.598;2023-02-01T15:06:47;5.70;97.50
46139;DHT22;32398;49.112;8.598;2023-02-01T15:09:14;5.70;97.40
46139;DHT22;32398;49.112;8.598;2023-02-01T15:11:59;5.70;97.40
46139;DHT22;32398;49.112;8.598;2023-02-01T15:14:26;5.70;97.30
46139;DHT22;32398;49.112;8.598;2023-02-01T15:16:53;5.80;97.30
46139;DHT22;32398;49.112;8.598;2023-02-01T15:19:20;5.70;97.20
46139;DHT22;32398;49.112;8.598;2023-02-01T15:21:48;5.70;97.20
46139;DHT22;32398;49.112;8.598;2023-02-01T15:24:19;5.80;97.20
46139;DHT22;32398;49.112;8.598;2023-02-01T15:26:45;5.80;97.20
46139;DHT22;32398;49.112;8.598;2023-02-01T15:29:14;5.80;97.10
46139;DHT22;32398;49.112;8.598;2023-02-01T15:31:41;5.80;97.10
46139;DHT22;32398;49.112;8.598;2023-02-01T15:34:09;5.80;97.00
46139;DHT22;32398;49.112;8.598;2023-02-01T15:36:36;5.80;97.00
46139;DHT22;32398;49.112;8.598;2023-02-01T15:39:14;5.80;96.90
46139;DHT22;32398;49.112;8.598;2023-02-01T15:41:44;5.80;97.00
46139;DHT22;32398;49.112;8.598;2023-02-01T15:44:15;5.80;96.90
46139;DHT22;32398;49.112;8.598;2023-02-01T15:46:45;5.80;96.90
46139;DHT22;32398;49.112;8.598;2023-02-01T15:49:17;5.80;96.90
46139;DHT22;32398;49.112;8.598;2023-02-01T15:51:45;5.80;96.90
46139;DHT22;32398;49.112;8.598;2023-02-01T15:54:14;5.80;96.90
46139;DHT22;32398;49.112;8.598;2023-02-01T15:56:46;5.80;96.80
46139;DHT22;32398;49.112;8.598;2023-02-01T15:59:18;5.80;96.80
46139;DHT22;32398;49.112;8.598;2023-02-01T16:01:45;5.80;96.80
46139;DHT22;32398;49.112;8.598;2023-02-01T16:04:15;5.80;96.70
46139;DHT22;32398;49.112;8.598;2023-02-01T16:06:45;5.80;96.70
46139;DHT22;32398;49.112;8.598;2023-02-01T16:09:13;5.90;96.70
46139;DHT22;32398;49.112;8.598;2023-02-01T16:11:41;5.80;96.60
46139;DHT22;32398;49.112;8.598;2023-02-01T16:14:08;5.80;96.60
46139;DHT22;32398;49.112;8.598;2023-02-01T16:16:35;5.80;96.50
46139;DHT22;32398;49.112;8.598;2023-02-01T16:19:02;5.90;96.50
46139;DHT22;32398;49.112;8.598;2023-02-01T16:21:29;5.80;96.50
46139;DHT22;32398;49.112;8.598;2023-02-01T16:23:55;5.80;96.50